createdAt,value
2023-04-23T00:01:02.576Z,13.90
2023-04-23T00:03:34.608Z,13.90
2023-04-23T00:06:07.980Z,13.80
2023-04-23T00:08:37.125Z,13.80
2023-04-23T00:11:06.512Z,13.70
2023-04-23T00:13:35.461Z,13.70
2023-04-23T00:16:04.418Z,13.60
2023-04-23T00:18:34.051Z,13.60
2023-04-23T00:21:02.736Z,13.50
2023-04-23T00:23:31.070Z,13.50
2023-04-23T00:25:59.324Z,13.40
2023-04-23T00:28:27.565Z,13.30
2023-04-23T00:30:55.909Z,13.30
2023-04-23T00:33:24.623Z,13.20
2023-04-23T00:35:54.385Z,13.00
2023-04-23T00:38:22.680Z,13.00
2023-04-23T00:40:51.087Z,12.90
2023-04-23T00:43:19.472Z,12.80
2023-04-23T00:45:48.446Z,12.80
2023-04-23T00:48:17.393Z,12.70
2023-04-23T00:50:45.840Z,12.60
2023-04-23T00:53:15.565Z,12.60
2023-04-23T00:55:44.001Z,12.60
2023-04-23T00:58:12.250Z,12.50
2023-04-23T01:00:46.239Z,12.40
2023-04-23T01:03:14.905Z,12.40
2023-04-23T01:05:44.142Z,12.30
2023-04-23T01:08:17.072Z,12.30
2023-04-23T01:10:46.199Z,12.30
2023-04-23T01:13:14.977Z,12.30
2023-04-23T01:15:43.846Z,12.20
2023-04-23T01:18:12.800Z,12.20
2023-04-23T01:20:43.210Z,12.10
2023-04-23T01:23:12.895Z,12.10
2023-04-23T01:25:41.243Z,12.00
2023-04-23T01:28:09.645Z,12.10
2023-04-23T01:30:39.427Z,12.10
2023-04-23T01:33:08.040Z,12.10
2023-04-23T01:35:41.121Z,12.00
2023-04-23T01:38:12.611Z,11.90
2023-04-23T01:40:41.418Z,11.90
2023-04-23T01:43:09.852Z,11.90
2023-04-23T01:45:38.424Z,11.90
2023-04-23T01:48:07.270Z,11.90
2023-04-23T01:50:36.242Z,11.90
2023-04-23T01:53:04.589Z,11.80
2023-04-23T01:55:35.604Z,11.80
2023-04-23T01:58:03.881Z,11.80
2023-04-23T02:00:32.071Z,11.80
2023-04-23T02:03:00.528Z,11.80
2023-04-23T02:05:30.710Z,11.80
2023-04-23T02:07:59.176Z,11.80
2023-04-23T02:10:28.087Z,11.80
2023-04-23T02:12:59.460Z,11.70
2023-04-23T02:15:27.781Z,11.80
2023-04-23T02:17:56.118Z,11.70
2023-04-23T02:20:25.267Z,11.70
2023-04-23T02:22:53.666Z,11.70
2023-04-23T02:25:22.358Z,11.70
2023-04-23T02:27:50.846Z,11.60
2023-04-23T02:30:20.856Z,11.70
2023-04-23T02:32:50.418Z,11.70
2023-04-23T02:35:19.051Z,11.80
2023-04-23T02:37:47.692Z,11.70
2023-04-23T02:40:15.914Z,11.60
2023-04-23T02:42:44.207Z,11.70
2023-04-23T02:45:13.417Z,11.70
2023-04-23T02:47:43.220Z,11.80
2023-04-23T02:50:12.157Z,11.60
2023-04-23T02:52:41.342Z,11.70
2023-04-23T02:55:10.881Z,11.60
2023-04-23T02:57:45.707Z,11.70
2023-04-23T03:00:14.921Z,11.60
2023-04-23T03:02:46.314Z,11.50
2023-04-23T03:05:14.754Z,11.50
2023-04-23T03:07:43.072Z,11.50
2023-04-23T03:10:12.268Z,11.60
2023-04-23T03:12:40.700Z,11.50
2023-04-23T03:15:09.276Z,11.40
2023-04-23T03:17:38.475Z,11.40
2023-04-23T03:20:11.487Z,11.40
2023-04-23T03:22:39.666Z,11.30
2023-04-23T03:25:08.662Z,11.40
2023-04-23T03:27:38.430Z,11.30
2023-04-23T03:30:09.244Z,11.20
2023-04-23T03:32:38.217Z,11.20
2023-04-23T03:35:09.571Z,11.20
2023-04-23T03:37:37.929Z,11.30
2023-04-23T03:40:07.840Z,11.30
2023-04-23T03:42:36.873Z,11.30
2023-04-23T03:45:06.770Z,11.30
2023-04-23T03:47:35.306Z,11.20
2023-04-23T03:50:04.778Z,11.10
2023-04-23T03:52:35.254Z,11.20
2023-04-23T03:55:03.895Z,11.10
2023-04-23T03:57:32.327Z,11.10
2023-04-23T04:00:00.820Z,11.20
2023-04-23T04:02:29.161Z,11.20
2023-04-23T04:04:58.086Z,11.10
2023-04-23T04:07:27.060Z,11.00
2023-04-23T04:09:59.863Z,11.10
2023-04-23T04:12:28.257Z,11.10
2023-04-23T04:14:56.661Z,11.00
2023-04-23T04:17:25.260Z,11.00
2023-04-23T04:19:56.568Z,11.10
2023-04-23T04:22:25.288Z,11.10
2023-04-23T04:24:54.168Z,11.10
2023-04-23T04:27:23.864Z,11.00
2023-04-23T04:29:52.435Z,11.00
2023-04-23T04:32:23.414Z,11.00
2023-04-23T04:34:52.674Z,11.00
2023-04-23T04:37:21.401Z,11.00
2023-04-23T04:39:50.045Z,11.10
2023-04-23T04:42:18.452Z,11.10
2023-04-23T04:44:48.985Z,11.20
2023-04-23T04:47:17.562Z,10.90
2023-04-23T04:49:45.943Z,11.00
2023-04-23T04:52:17.824Z,11.00
2023-04-23T04:54:46.257Z,11.00
2023-04-23T04:57:14.507Z,11.00
2023-04-23T04:59:43.611Z,11.00
2023-04-23T05:02:14.346Z,11.10
2023-04-23T05:04:42.862Z,11.00
2023-04-23T05:07:11.412Z,11.00
2023-04-23T05:09:39.760Z,11.00
2023-04-23T05:12:08.119Z,11.00
2023-04-23T05:14:36.515Z,10.90
2023-04-23T05:17:05.666Z,10.80
2023-04-23T05:19:35.336Z,10.70
2023-04-23T05:22:04.129Z,10.70
2023-04-23T05:24:32.358Z,10.70
2023-04-23T05:27:01.320Z,10.70
2023-04-23T05:29:30.310Z,10.70
2023-04-23T05:31:59.139Z,10.80
2023-04-23T05:34:27.797Z,10.70
2023-04-23T05:36:57.619Z,10.60
2023-04-23T05:39:26.257Z,10.50
2023-04-23T05:41:54.745Z,10.40
2023-04-23T05:44:23.087Z,10.40
2023-04-23T05:46:51.990Z,10.50
2023-04-23T05:49:20.273Z,10.40
2023-04-23T05:51:48.749Z,10.50
2023-04-23T05:54:18.473Z,10.50
2023-04-23T05:56:46.998Z,10.50
2023-04-23T05:59:15.667Z,10.50
2023-04-23T06:01:43.943Z,10.50
2023-04-23T06:04:12.436Z,10.50
2023-04-23T06:06:40.956Z,10.50
2023-04-23T06:09:09.537Z,10.40
2023-04-23T06:11:39.322Z,10.50
2023-04-23T06:14:08.083Z,10.50
2023-04-23T06:16:36.571Z,10.50
2023-04-23T06:19:05.373Z,10.60
2023-04-23T06:21:34.234Z,10.70
2023-04-23T06:24:02.415Z,10.70
2023-04-23T06:26:32.685Z,10.90
2023-04-23T06:29:02.922Z,11.10
2023-04-23T06:31:31.672Z,11.40
2023-04-23T06:34:00.413Z,11.30
2023-04-23T06:36:28.750Z,11.20
2023-04-23T06:38:57.655Z,11.10
2023-04-23T06:41:26.371Z,11.40
2023-04-23T06:43:55.249Z,11.70
2023-04-23T06:46:24.923Z,12.10
2023-04-23T06:48:53.345Z,12.40
2023-04-23T06:51:26.125Z,12.50
2023-04-23T06:53:54.534Z,13.10
2023-04-23T06:56:23.924Z,13.10
2023-04-23T06:58:52.808Z,13.10
2023-04-23T07:01:21.254Z,13.90
2023-04-23T07:03:54.307Z,14.00
2023-04-23T07:06:22.572Z,14.20
2023-04-23T07:08:51.051Z,13.60
2023-04-23T07:11:19.494Z,13.30
2023-04-23T07:13:48.574Z,13.40
2023-04-23T07:16:17.049Z,13.60
2023-04-23T07:18:45.728Z,13.40
2023-04-23T07:21:15.645Z,14.10
2023-04-23T07:23:43.933Z,14.50
2023-04-23T07:26:12.530Z,15.30
2023-04-23T07:28:40.756Z,15.80
2023-04-23T07:31:09.203Z,15.80
2023-04-23T07:33:37.430Z,16.50
2023-04-23T07:36:05.902Z,16.80
2023-04-23T07:38:35.542Z,17.00
2023-04-23T07:41:04.149Z,17.40
2023-04-23T07:43:32.759Z,17.30
2023-04-23T07:46:01.227Z,16.90
2023-04-23T07:48:35.477Z,17.70
2023-04-23T07:51:04.188Z,18.00
2023-04-23T07:53:32.774Z,18.40
2023-04-23T07:56:02.607Z,18.90
2023-04-23T07:58:41.269Z,18.30
2023-04-23T08:01:10.508Z,19.00
2023-04-23T08:03:39.400Z,18.60
2023-04-23T08:06:08.037Z,18.70
2023-04-23T08:08:36.362Z,17.70
2023-04-23T08:11:06.582Z,18.60
2023-04-23T08:13:35.093Z,20.20
2023-04-23T08:16:03.641Z,20.10
2023-04-23T08:18:31.978Z,20.20
2023-04-23T08:21:00.383Z,20.40
2023-04-23T08:23:28.946Z,20.80
2023-04-23T08:25:57.241Z,20.70
2023-04-23T08:28:28.099Z,20.60
2023-04-23T08:30:56.971Z,20.60
2023-04-23T08:33:25.539Z,20.50
2023-04-23T08:35:53.906Z,21.00
2023-04-23T08:38:22.284Z,20.50
2023-04-23T08:40:56.707Z,20.80
2023-04-23T08:43:33.140Z,21.60
2023-04-23T08:46:05.061Z,22.10
2023-04-23T08:48:36.605Z,22.00
2023-04-23T08:51:06.255Z,21.50
2023-04-23T08:53:35.003Z,20.30
2023-04-23T08:56:04.819Z,19.50
2023-04-23T08:58:36.305Z,19.20
2023-04-23T09:01:05.300Z,19.50
2023-04-23T09:03:35.444Z,20.00
2023-04-23T09:06:07.121Z,19.30
2023-04-23T09:08:35.671Z,19.70
2023-04-23T09:11:03.886Z,19.50
2023-04-23T09:13:46.531Z,19.40
2023-04-23T09:16:19.309Z,19.30
2023-04-23T09:18:49.796Z,19.10
2023-04-23T09:21:18.525Z,19.10
2023-04-23T09:23:46.884Z,19.80
2023-04-23T09:26:22.161Z,20.90
2023-04-23T09:28:52.451Z,19.90
2023-04-23T09:31:24.830Z,19.80
2023-04-23T09:33:54.537Z,19.90
2023-04-23T09:36:24.091Z,19.10
2023-04-23T09:38:57.055Z,19.90
2023-04-23T09:41:26.331Z,21.80
2023-04-23T09:43:56.970Z,22.90
2023-04-23T09:46:37.394Z,21.50
2023-04-23T09:49:07.928Z,20.10
2023-04-23T09:51:39.089Z,19.60
2023-04-23T09:54:13.626Z,18.40
2023-04-23T09:56:42.606Z,18.50
2023-04-23T09:59:45.337Z,18.80
2023-04-23T10:02:23.385Z,20.20
2023-04-23T10:05:25.072Z,21.20
2023-04-23T10:07:57.522Z,20.80
2023-04-23T10:10:27.889Z,20.90
2023-04-23T10:12:57.373Z,21.50
2023-04-23T10:15:28.510Z,19.00
2023-04-23T10:17:57.258Z,19.90
2023-04-23T10:20:26.947Z,20.10
2023-04-23T10:22:56.812Z,21.60
2023-04-23T10:25:26.639Z,21.80
2023-04-23T10:27:58.217Z,21.40
2023-04-23T10:30:28.901Z,21.60
2023-04-23T10:33:01.690Z,22.60
2023-04-23T10:35:32.818Z,22.30
2023-04-23T10:38:02.155Z,22.60
2023-04-23T10:40:33.430Z,21.90
2023-04-23T10:43:02.211Z,21.00
2023-04-23T10:45:33.650Z,20.50
2023-04-23T10:48:02.204Z,20.50
2023-04-23T10:50:32.312Z,19.40
2023-04-23T10:53:00.726Z,18.80
2023-04-23T10:55:31.204Z,18.50
2023-04-23T10:58:02.933Z,19.10
2023-04-23T11:00:46.535Z,19.70
2023-04-23T11:03:42.546Z,19.10
2023-04-23T11:06:15.730Z,19.70
2023-04-23T11:08:54.825Z,19.50
2023-04-23T11:11:40.719Z,20.20
2023-04-23T11:14:15.171Z,21.00
2023-04-23T11:16:44.887Z,22.10
2023-04-23T11:19:16.665Z,22.20
2023-04-23T11:22:04.010Z,21.50
2023-04-23T11:24:33.892Z,22.20
2023-04-23T11:27:02.773Z,22.90
2023-04-23T11:29:31.251Z,22.00
2023-04-23T11:32:03.564Z,22.10
2023-04-23T11:34:33.726Z,22.00
2023-04-23T11:37:03.628Z,21.90
2023-04-23T11:39:32.112Z,22.30
2023-04-23T11:42:03.020Z,22.20
2023-04-23T11:44:31.751Z,22.80
2023-04-23T11:47:03.328Z,22.80
2023-04-23T11:49:32.220Z,22.60
2023-04-23T11:52:02.942Z,22.00
2023-04-23T11:54:31.460Z,22.00
2023-04-23T11:56:59.985Z,22.30
2023-04-23T11:59:30.954Z,21.90
2023-04-23T12:02:00.722Z,22.30
2023-04-23T12:04:32.007Z,21.80
2023-04-23T12:07:04.257Z,20.90
2023-04-23T12:09:39.248Z,20.40
2023-04-23T12:12:07.624Z,19.70
2023-04-23T12:14:36.218Z,19.20
2023-04-23T12:17:12.061Z,18.70
2023-04-23T12:19:45.906Z,18.70
2023-04-23T12:22:14.437Z,18.40
2023-04-23T12:24:52.289Z,18.30
2023-04-23T12:27:22.232Z,18.70
2023-04-23T12:30:00.223Z,18.60
2023-04-23T12:32:28.591Z,18.80
2023-04-23T12:34:58.789Z,19.70
2023-04-23T12:37:28.117Z,19.90
2023-04-23T12:39:59.662Z,19.90
2023-04-23T12:42:27.944Z,19.20
2023-04-23T12:44:56.704Z,18.50
2023-04-23T12:47:25.039Z,18.50
2023-04-23T12:49:55.602Z,18.80
2023-04-23T12:52:30.017Z,19.30
2023-04-23T12:55:02.671Z,19.40
2023-04-23T12:57:34.782Z,19.00
2023-04-23T13:00:08.493Z,18.40
2023-04-23T13:02:37.706Z,18.00
2023-04-23T13:05:12.003Z,18.00
2023-04-23T13:07:53.078Z,17.90
2023-04-23T13:10:24.673Z,17.90
2023-04-23T13:12:53.263Z,17.90
2023-04-23T13:15:21.744Z,17.60
2023-04-23T13:17:50.523Z,17.90
2023-04-23T13:20:19.080Z,18.00
2023-04-23T13:22:48.988Z,18.20
2023-04-23T13:25:17.589Z,18.30
2023-04-23T13:27:46.251Z,18.30
2023-04-23T13:30:15.235Z,18.30
2023-04-23T13:32:43.503Z,18.10
2023-04-23T13:35:11.899Z,17.90
2023-04-23T13:37:41.573Z,17.80
2023-04-23T13:40:12.606Z,17.90
2023-04-23T13:42:40.825Z,17.70
2023-04-23T13:45:10.119Z,17.80
2023-04-23T13:47:38.579Z,17.60
2023-04-23T13:50:08.298Z,17.40
2023-04-23T13:52:38.274Z,17.70
2023-04-23T13:55:07.679Z,17.70
2023-04-23T13:57:38.222Z,17.80
2023-04-23T14:00:07.362Z,18.00
2023-04-23T14:02:35.972Z,17.70
2023-04-23T14:05:06.478Z,17.60
2023-04-23T14:07:35.001Z,17.60
2023-04-23T14:10:06.960Z,17.60
2023-04-23T14:12:37.187Z,17.50
2023-04-23T14:15:06.214Z,17.40
2023-04-23T14:17:34.814Z,17.40
2023-04-23T14:20:03.400Z,17.30
2023-04-23T14:22:32.438Z,17.20
2023-04-23T14:25:04.437Z,17.10
2023-04-23T14:27:35.345Z,17.20
2023-04-23T14:30:06.303Z,17.20
2023-04-23T14:32:34.798Z,17.20
2023-04-23T14:35:03.645Z,17.10
2023-04-23T14:37:32.173Z,17.20
2023-04-23T14:40:00.413Z,17.50
2023-04-23T14:42:28.703Z,17.70
2023-04-23T14:45:00.330Z,17.50
2023-04-23T14:47:31.123Z,17.50
2023-04-23T14:50:01.211Z,17.80
2023-04-23T14:52:29.564Z,17.90
2023-04-23T14:54:58.110Z,17.80
2023-04-23T14:57:27.451Z,17.90
2023-04-23T14:59:56.735Z,17.90
2023-04-23T15:02:25.068Z,17.90
2023-04-23T15:04:55.296Z,17.70
2023-04-23T15:07:23.572Z,17.60
2023-04-23T15:09:52.128Z,17.60
2023-04-23T15:12:45.261Z,17.50
2023-04-23T15:15:30.440Z,17.50
2023-04-23T15:18:02.097Z,17.60
2023-04-23T15:20:31.977Z,17.60
2023-04-23T15:23:00.452Z,17.50
2023-04-23T15:25:28.905Z,17.40
2023-04-23T15:27:58.222Z,17.40
2023-04-23T15:30:26.909Z,17.30
2023-04-23T15:32:56.305Z,17.30
2023-04-23T15:35:24.903Z,17.30
2023-04-23T15:37:55.318Z,17.20
2023-04-23T15:40:23.733Z,17.20
2023-04-23T15:42:52.040Z,17.20
2023-04-23T15:45:20.360Z,17.20
2023-04-23T15:47:51.951Z,17.20
2023-04-23T15:50:26.609Z,17.20
2023-04-23T15:52:58.316Z,17.30
2023-04-23T15:55:29.993Z,17.10
2023-04-23T15:58:01.525Z,17.20
2023-04-23T16:00:31.109Z,17.10
2023-04-23T16:03:01.102Z,17.00
2023-04-23T16:05:30.149Z,17.10
2023-04-23T16:08:00.160Z,17.00
2023-04-23T16:10:30.115Z,17.10
2023-04-23T16:13:04.447Z,17.10
2023-04-23T16:15:44.281Z,17.20
2023-04-23T16:18:12.672Z,17.30
2023-04-23T16:20:41.310Z,17.40
2023-04-23T16:23:10.816Z,17.40
2023-04-23T16:25:39.207Z,17.40
2023-04-23T16:28:07.618Z,17.20
2023-04-23T16:30:36.099Z,17.30
2023-04-23T16:33:04.721Z,17.20
2023-04-23T16:35:33.993Z,17.00
2023-04-23T16:38:05.312Z,17.00
2023-04-23T16:40:39.527Z,17.00
2023-04-23T16:43:09.041Z,17.10
2023-04-23T16:45:38.341Z,17.20
2023-04-23T16:48:07.519Z,17.10
2023-04-23T16:50:36.206Z,17.20
2023-04-23T16:53:04.775Z,17.20
2023-04-23T16:55:35.119Z,17.30
2023-04-23T16:58:03.521Z,17.40
2023-04-23T17:00:31.765Z,17.10
2023-04-23T17:03:00.556Z,17.10
2023-04-23T17:05:33.890Z,17.00
2023-04-23T17:08:05.640Z,17.10
2023-04-23T17:10:35.384Z,16.80
2023-04-23T17:13:06.647Z,16.80
2023-04-23T17:15:35.122Z,16.90
2023-04-23T17:18:14.796Z,16.90
2023-04-23T17:20:43.394Z,17.10
2023-04-23T17:23:11.796Z,17.10
2023-04-23T17:25:46.119Z,16.70
2023-04-23T17:28:15.183Z,16.70
2023-04-23T17:30:45.367Z,16.70
2023-04-23T17:33:14.080Z,16.70
2023-04-23T17:35:42.451Z,16.50
2023-04-23T17:38:12.787Z,16.40
2023-04-23T17:40:42.952Z,16.40
2023-04-23T17:43:11.481Z,16.50
2023-04-23T17:45:39.811Z,16.50
2023-04-23T17:48:08.821Z,16.50
2023-04-23T17:50:37.377Z,16.50
2023-04-23T17:53:05.715Z,16.30
2023-04-23T17:55:34.226Z,16.50
2023-04-23T17:58:05.716Z,16.20
2023-04-23T18:00:35.998Z,16.30
2023-04-23T18:03:06.568Z,16.20
2023-04-23T18:05:36.567Z,16.00
2023-04-23T18:08:08.250Z,16.00
2023-04-23T18:10:36.808Z,16.00
2023-04-23T18:13:09.181Z,16.00
2023-04-23T18:15:37.559Z,16.00
2023-04-23T18:18:06.415Z,15.80
2023-04-23T18:20:38.477Z,15.60
2023-04-23T18:23:09.100Z,15.40
2023-04-23T18:25:43.151Z,15.40
2023-04-23T18:28:18.151Z,15.20
2023-04-23T18:30:47.833Z,15.10
2023-04-23T18:33:30.611Z,14.90
2023-04-23T18:36:04.035Z,14.80
2023-04-23T18:38:38.404Z,14.60
2023-04-23T18:41:07.012Z,14.60
2023-04-23T18:43:37.026Z,14.40
2023-04-23T18:46:05.424Z,14.30
2023-04-23T18:48:54.001Z,14.30
2023-04-23T18:51:27.813Z,14.20
2023-04-23T18:53:56.354Z,14.20
2023-04-23T18:56:25.203Z,14.00
2023-04-23T18:58:55.452Z,14.20
2023-04-23T19:01:24.311Z,14.30
2023-04-23T19:03:52.742Z,14.40
2023-04-23T19:06:21.712Z,14.40
2023-04-23T19:08:50.072Z,14.50
2023-04-23T19:11:18.380Z,14.70
2023-04-23T19:13:46.638Z,14.90
2023-04-23T19:16:18.288Z,14.80
2023-04-23T19:18:55.752Z,14.70
2023-04-23T19:21:24.123Z,14.50
2023-04-23T19:23:54.062Z,14.60
2023-04-23T19:26:23.311Z,14.70
2023-04-23T19:28:51.662Z,14.80
2023-04-23T19:31:21.480Z,14.70
2023-04-23T19:33:49.802Z,14.70
2023-04-23T19:36:18.497Z,14.60
2023-04-23T19:38:47.077Z,14.70
2023-04-23T19:41:15.560Z,14.80
2023-04-23T19:43:43.981Z,14.80
2023-04-23T19:46:12.695Z,15.00
2023-04-23T19:48:42.745Z,15.10
2023-04-23T19:51:11.184Z,15.10
2023-04-23T19:53:39.478Z,14.70
2023-04-23T19:56:12.909Z,14.20
2023-04-23T19:58:41.144Z,14.00
2023-04-23T20:01:10.718Z,13.80
2023-04-23T20:03:39.560Z,13.60
2023-04-23T20:06:09.563Z,13.40
2023-04-23T20:08:53.075Z,13.40
2023-04-23T20:11:21.381Z,13.30
2023-04-23T20:13:49.796Z,13.20
2023-04-23T20:16:18.128Z,13.10
2023-04-23T20:18:47.311Z,12.80
2023-04-23T20:21:17.149Z,12.50
2023-04-23T20:23:45.662Z,12.40
2023-04-23T20:26:14.468Z,12.30
2023-04-23T20:28:42.705Z,12.20
2023-04-23T20:31:11.817Z,12.10
2023-04-23T20:33:40.585Z,12.10
2023-04-23T20:36:10.840Z,12.20
2023-04-23T20:38:42.982Z,12.20
2023-04-23T20:41:11.286Z,12.20
2023-04-23T20:43:39.984Z,12.10
2023-04-23T20:46:10.304Z,12.10
2023-04-23T20:48:39.402Z,12.10
2023-04-23T20:51:07.947Z,12.00
2023-04-23T20:53:36.162Z,11.90
2023-04-23T20:56:06.651Z,11.90
2023-04-23T20:58:34.957Z,11.90
2023-04-23T21:01:04.662Z,12.00
2023-04-23T21:03:36.713Z,12.00
2023-04-23T21:06:06.175Z,12.00
2023-04-23T21:08:35.876Z,12.10
2023-04-23T21:11:11.005Z,12.10
2023-04-23T21:13:39.334Z,12.10
2023-04-23T21:16:08.153Z,12.10
2023-04-23T21:18:38.033Z,12.10
2023-04-23T21:21:07.534Z,12.20
2023-04-23T21:23:36.132Z,12.20
2023-04-23T21:26:06.012Z,12.20
2023-04-23T21:28:34.387Z,12.30
2023-04-23T21:31:08.289Z,12.10
2023-04-23T21:33:36.650Z,12.20
2023-04-23T21:36:05.810Z,12.30
2023-04-23T21:38:34.581Z,12.20
2023-04-23T21:41:03.489Z,12.10
2023-04-23T21:43:38.055Z,12.10
2023-04-23T21:46:07.150Z,12.00
2023-04-23T21:48:35.617Z,11.90
2023-04-23T21:51:03.972Z,12.00
2023-04-23T21:53:35.267Z,11.90
2023-04-23T21:56:04.526Z,11.80
2023-04-23T21:58:35.241Z,11.80
2023-04-23T22:01:04.128Z,11.90
2023-04-23T22:03:38.455Z,11.90
2023-04-23T22:06:08.171Z,12.00
2023-04-23T22:08:38.013Z,11.90
2023-04-23T22:11:06.882Z,11.90
2023-04-23T22:13:36.968Z,11.80
2023-04-23T22:16:10.849Z,11.80
2023-04-23T22:18:42.570Z,11.80
2023-04-23T22:21:11.249Z,11.80
2023-04-23T22:23:39.449Z,11.80
2023-04-23T22:26:08.218Z,11.80
2023-04-23T22:28:37.893Z,11.70
2023-04-23T22:31:06.230Z,11.70
2023-04-23T22:33:36.517Z,11.70
2023-04-23T22:36:05.390Z,11.70
2023-04-23T22:38:34.220Z,11.70
2023-04-23T22:41:02.659Z,11.70
2023-04-23T22:43:31.284Z,11.60
2023-04-23T22:46:01.342Z,11.70
2023-04-23T22:48:31.211Z,11.70
2023-04-23T22:50:59.692Z,11.80
2023-04-23T22:53:28.202Z,11.70
2023-04-23T22:55:57.067Z,11.80
2023-04-23T22:58:25.428Z,11.80
2023-04-23T23:00:53.702Z,11.80
2023-04-23T23:03:25.612Z,11.80
2023-04-23T23:05:54.544Z,11.70
2023-04-23T23:08:22.843Z,11.60
2023-04-23T23:10:51.210Z,11.50
2023-04-23T23:13:19.560Z,11.40
2023-04-23T23:15:48.048Z,11.50
2023-04-23T23:18:16.521Z,11.50
2023-04-23T23:20:46.485Z,11.50
2023-04-23T23:23:21.430Z,11.30
2023-04-23T23:25:49.827Z,11.30
2023-04-23T23:28:18.179Z,11.30
2023-04-23T23:30:46.396Z,11.30
2023-04-23T23:33:14.691Z,11.40
2023-04-23T23:35:43.785Z,11.40
2023-04-23T23:38:14.050Z,11.40
2023-04-23T23:40:42.382Z,11.30
2023-04-23T23:43:10.931Z,11.40
2023-04-23T23:45:39.308Z,11.20
2023-04-23T23:48:07.794Z,11.20
2023-04-23T23:50:36.257Z,11.20
2023-04-23T23:53:04.802Z,11.20
2023-04-23T23:55:35.113Z,11.10
2023-04-23T23:58:03.838Z,11.10
